Terminal Aerodrome Forecast
Issued by NWS

Home | Current Version | Previous Version | Text Only | Print | Product List | Glossary On
Versions: 1 2 3 4 5 6 7 8 9 10 11 12 13 14 15 16 17 18 19 20 21
000
FTAK31 PAJN 110527
TAFAWG
TAF
PAWG 110527Z 1106/1206 12012G20KT P6SM -SHRA SCT035 OVC070
      WS020/14030KT
     FM111900 12010KT P6SM VCSH FEW035 BKN070 WS020/13025KT
     FM120100 11006KT P6SM SCT070 WS020/12030KT=

USA.gov is the U.S. government's official web portal to all federal, state and local government web resources and services.